createdAt,value
2018-08-04T00:05:07.064Z,12.51
2018-08-04T00:11:02.080Z,13.63
2018-08-04T00:16:57.125Z,12.66
2018-08-04T00:22:52.078Z,11.26
2018-08-04T00:28:47.090Z,12.62
2018-08-04T00:34:42.138Z,11.21
2018-08-04T00:58:22.120Z,14.63
2018-08-04T00:58:22.193Z,12.36
2018-08-04T00:58:22.211Z,12.36
2018-08-04T00:58:22.259Z,12.36
2018-08-04T01:04:17.101Z,13.66
2018-08-04T01:10:12.065Z,13.78
2018-08-04T01:16:07.141Z,11.57
2018-08-04T01:22:02.106Z,13.77
2018-08-04T01:27:57.139Z,14.58
2018-08-04T01:33:52.123Z,12.39
2018-08-04T01:39:47.115Z,15.13
2018-08-04T01:45:42.157Z,13.39
2018-08-04T01:51:37.143Z,10.87
2018-08-04T01:57:32.128Z,15.39
2018-08-04T02:03:27.154Z,14.75
2018-08-04T02:09:22.140Z,11.86
2018-08-04T02:15:17.150Z,12.8
2018-08-04T02:21:12.134Z,14.72
2018-08-04T02:27:07.169Z,12.96
2018-08-04T02:33:02.137Z,13.93
2018-08-04T02:38:57.146Z,15.2
2018-08-04T02:44:52.144Z,11.81
2018-08-04T02:50:47.134Z,13.84
2018-08-04T02:56:42.220Z,11.49
2018-08-04T03:02:37.142Z,12.04
2018-08-04T03:08:32.176Z,13.48
2018-08-04T03:14:27.136Z,11.54
2018-08-04T03:20:22.126Z,13.87
2018-08-04T03:26:17.155Z,13.77
2018-08-04T03:32:12.142Z,15.3
2018-08-04T04:01:47.197Z,15.27
2018-08-04T04:01:47.317Z,12.2
2018-08-04T04:01:47.328Z,14.75
2018-08-04T04:01:47.358Z,12.2
2018-08-04T04:01:47.359Z,12.2
2018-08-04T04:07:42.175Z,15.51
2018-08-04T04:13:37.166Z,13.7
2018-08-04T04:19:32.169Z,12.18
2018-08-04T04:25:27.222Z,15.03
2018-08-04T04:31:22.180Z,14.25
2018-08-04T04:37:17.178Z,13.39
2018-08-04T04:43:12.163Z,15.17
2018-08-04T04:49:07.198Z,9.52
2018-08-04T04:55:02.211Z,10.49
2018-08-04T05:00:57.161Z,18.17
2018-08-04T05:06:52.178Z,12.38
2018-08-04T05:12:47.175Z,12.89
2018-08-04T05:18:42.225Z,10.75
2018-08-04T05:24:37.233Z,13.94
2018-08-04T05:30:32.201Z,14.38
2018-08-04T05:36:27.194Z,12.37
2018-08-04T05:42:22.189Z,10.88
2018-08-04T05:48:17.219Z,13.55
2018-08-04T05:54:12.200Z,12.12
2018-08-04T06:00:07.266Z,12.41
2018-08-04T06:06:02.197Z,12.29
2018-08-04T06:11:57.215Z,11.08
2018-08-04T06:17:52.243Z,11.96
2018-08-04T06:23:47.262Z,8.26
2018-08-04T06:29:42.247Z,11.41
2018-08-04T06:35:37.284Z,10.43
2018-08-04T06:59:17.234Z,12.07
2018-08-04T06:59:17.428Z,8.71
2018-08-04T06:59:17.436Z,8.71
2018-08-04T06:59:17.483Z,8.71
2018-08-04T07:05:12.225Z,9.75
2018-08-04T07:11:07.221Z,11.5
2018-08-04T07:17:02.254Z,10.62
2018-08-04T07:22:57.350Z,10.1
2018-08-04T07:28:52.269Z,10.66
2018-08-04T07:34:47.234Z,9.1
2018-08-04T07:40:42.239Z,10.92
2018-08-04T07:46:37.233Z,13.46
2018-08-04T07:52:32.262Z,12.6
2018-08-04T07:58:27.254Z,11.28
2018-08-04T08:04:22.236Z,8.93
2018-08-04T08:10:17.263Z,9.76
2018-08-04T08:16:12.308Z,8.6
2018-08-04T08:22:07.276Z,7.7
2018-08-04T08:28:02.267Z,7.32
2018-08-04T08:33:57.348Z,10.16
2018-08-04T08:39:52.285Z,7.91
2018-08-04T08:45:47.295Z,7.88
2018-08-04T08:51:42.298Z,8.95
2018-08-04T08:57:37.278Z,9.07
2018-08-04T09:03:32.308Z,9.94
2018-08-04T09:09:27.505Z,8.82
2018-08-04T09:15:22.342Z,8.44
2018-08-04T09:21:17.291Z,10.09
2018-08-04T09:27:12.302Z,11.71
2018-08-04T09:33:07.341Z,8.24
2018-08-04T10:02:42.400Z,8.13
2018-08-04T10:02:42.563Z,7.36
2018-08-04T10:02:42.567Z,7.36
2018-08-04T10:02:42.593Z,7.36
2018-08-04T10:02:42.606Z,7.36
2018-08-04T10:08:37.291Z,9.78
2018-08-04T10:14:32.333Z,8.83
2018-08-04T10:20:27.323Z,10.1
2018-08-04T10:26:22.300Z,10.27
2018-08-04T10:32:17.454Z,8.37
2018-08-04T10:38:12.316Z,7.33
2018-08-04T10:44:07.459Z,8.77
2018-08-04T10:50:02.408Z,9.54
2018-08-04T10:55:57.430Z,8.8
2018-08-04T11:01:52.368Z,7.08
2018-08-04T11:07:47.348Z,8.11
2018-08-04T11:13:42.394Z,7.49
2018-08-04T11:19:37.331Z,7.61
2018-08-04T11:25:32.333Z,9.69
2018-08-04T11:31:27.368Z,10.02
2018-08-04T11:37:22.332Z,8.31
2018-08-04T11:43:17.382Z,6.88
2018-08-04T11:49:12.365Z,7.71
2018-08-04T11:55:07.382Z,6.76
2018-08-04T12:01:02.389Z,7.81
2018-08-04T12:06:57.359Z,8.97
2018-08-04T12:12:52.356Z,9.14
2018-08-04T12:18:47.380Z,10.1
2018-08-04T12:24:42.369Z,8.61
2018-08-04T12:30:37.360Z,9.71
2018-08-04T12:36:32.397Z,8.51
2018-08-04T13:00:12.416Z,10.79
2018-08-04T13:00:12.475Z,7.45
2018-08-04T13:00:12.485Z,7.45
2018-08-04T13:00:12.496Z,7.45
2018-08-04T13:06:07.380Z,8.61
2018-08-04T13:12:02.564Z,8.26
2018-08-04T13:17:57.409Z,9.97
2018-08-04T13:23:52.383Z,9.29
2018-08-04T13:29:47.472Z,11.16
2018-08-04T13:35:42.421Z,9.41
2018-08-04T13:41:37.380Z,11.95
2018-08-04T13:47:32.453Z,10.17
2018-08-04T13:53:27.435Z,10.57
2018-08-04T13:59:22.407Z,9.83
2018-08-04T14:05:17.401Z,7.83
2018-08-04T14:11:12.407Z,8.22
2018-08-04T14:17:07.427Z,11.14
2018-08-04T14:23:02.415Z,8.98
2018-08-04T14:28:57.419Z,10.62
2018-08-04T14:34:52.473Z,8.97
2018-08-04T14:40:47.464Z,7.73
2018-08-04T14:46:42.428Z,8.7
2018-08-04T14:52:37.450Z,10.01
2018-08-04T14:58:32.451Z,6.09
2018-08-04T15:04:27.444Z,9.33
2018-08-04T15:10:22.447Z,8.09
2018-08-04T15:16:17.447Z,8.84
2018-08-04T15:22:12.430Z,7.53
2018-08-04T15:28:07.440Z,7.32
2018-08-04T15:34:02.461Z,9
2018-08-04T16:03:37.476Z,6.17
2018-08-04T16:03:37.546Z,8.35
2018-08-04T16:03:37.546Z,8.35
2018-08-04T16:03:37.597Z,8.35
2018-08-04T16:03:37.612Z,8.35
2018-08-04T16:09:32.479Z,6.88
2018-08-04T16:15:27.478Z,8.01
2018-08-04T16:21:22.477Z,6.7
2018-08-04T16:27:17.469Z,7
2018-08-04T16:33:12.517Z,8.47
2018-08-04T16:39:07.500Z,8.37
2018-08-04T16:45:02.476Z,8.72
2018-08-04T16:50:57.489Z,12.91
2018-08-04T16:56:52.498Z,8.77
2018-08-04T17:02:47.516Z,7.01
2018-08-04T17:08:42.539Z,7.83
2018-08-04T17:14:37.538Z,7.37
2018-08-04T17:20:32.543Z,7.94
2018-08-04T17:26:27.478Z,8.89
2018-08-04T17:32:22.525Z,9.71
2018-08-04T17:38:17.538Z,8.14
2018-08-04T17:44:12.528Z,6.68
2018-08-04T17:50:07.506Z,8.44
2018-08-04T17:56:02.519Z,7.73
2018-08-04T18:01:57.562Z,6.63
2018-08-04T18:07:52.557Z,8.16
2018-08-04T18:13:47.517Z,7.05
2018-08-04T18:19:42.506Z,7.38
2018-08-04T18:25:37.520Z,10.97
2018-08-04T18:31:32.546Z,11.29
2018-08-04T18:37:27.547Z,9.73
2018-08-04T19:01:07.530Z,7.68
2018-08-04T19:01:07.694Z,10.06
2018-08-04T19:01:07.701Z,10.06
2018-08-04T19:01:07.749Z,10.06
2018-08-04T19:07:02.528Z,8.09
2018-08-04T19:12:57.548Z,8.86
2018-08-04T19:18:52.580Z,9.29
2018-08-04T19:24:47.603Z,7.38
2018-08-04T19:30:42.564Z,9.24
2018-08-04T19:36:37.551Z,11.97
2018-08-04T19:42:32.545Z,11.21
2018-08-04T19:48:27.561Z,9.82
2018-08-04T19:54:22.544Z,11.7
2018-08-04T20:00:17.551Z,9.63
2018-08-04T20:06:12.562Z,9.72
2018-08-04T20:12:07.573Z,8.92
2018-08-04T20:18:02.572Z,9.42
2018-08-04T20:23:57.576Z,10.2
2018-08-04T20:29:52.587Z,10.41
2018-08-04T20:35:47.625Z,8.25
2018-08-04T20:41:42.586Z,8.8
2018-08-04T20:47:37.566Z,12.19
2018-08-04T20:53:32.595Z,8.61
2018-08-04T20:59:27.664Z,8.66
2018-08-04T21:05:22.585Z,9.49
2018-08-04T21:11:17.587Z,14.8
2018-08-04T21:17:12.630Z,8.31
2018-08-04T21:23:07.623Z,9.86
2018-08-04T21:29:02.629Z,8.52
2018-08-04T21:34:57.601Z,10.14
2018-08-04T22:04:32.638Z,10.12
2018-08-04T22:04:32.684Z,8.85
2018-08-04T22:04:32.705Z,8.85
2018-08-04T22:04:32.738Z,8.85
2018-08-04T22:04:32.753Z,8.85
2018-08-04T22:10:27.602Z,8.19
2018-08-04T22:16:22.653Z,8.47
2018-08-04T22:22:17.676Z,10.81
2018-08-04T22:28:12.647Z,8.24
2018-08-04T22:34:07.666Z,10.34
2018-08-04T22:40:02.635Z,8.7
2018-08-04T22:45:57.643Z,11.7
2018-08-04T22:51:52.662Z,10.07
2018-08-04T22:57:47.631Z,11.94
2018-08-04T23:09:37.689Z,11.06
2018-08-04T23:15:32.692Z,9.38
2018-08-04T23:21:27.638Z,8.27
2018-08-04T23:27:22.665Z,8.43
2018-08-04T23:33:17.667Z,10.69
2018-08-04T23:39:12.639Z,10.03
2018-08-04T23:45:07.671Z,9.1
2018-08-04T23:51:02.666Z,8.67
2018-08-04T23:56:57.664Z,10.03
